Change the Weather History Date:

Friday, January 4, 2013

  Actual Average Record
Temperature  
Mean Temperature 20 °F -  
Max Temperature 26 °F 25 °F 46 °F (2007)
Min Temperature 15 °F 10 °F -16 °F (1947)
Degree Days  
Heating Degree Days 44    
Moisture  
Dew Point 13 °F    
Average Humidity 71    
Maximum Humidity 79    
Minimum Humidity 64    
Precipitation  
Precipitation 0.00 in - - ()
Sea Level Pressure  
Sea Level Pressure 29.97 in    
Wind  
Wind Speed 18 mph (WSW)    
Max Wind Speed 24 mph    
Max Gust Speed 32 mph    
Visibility 10 miles    
Events      
Averages and records for this station are not official NWS values.
T = Trace of Precipitation, MM = Missing Value Source: NWS Daily Summary

Daily Weather History Graph

Daily Weather History Graph

Search for Another Location

Airport or City:

Trip Planner

Search our weather history database for the weather conditions in past years. The results will help you decide how hot, cold, wet, or windy it might be!

Date:

Astronomy

Jan. 04, 2013 Rise Set
Actual Time 7:27 AM CST 4:22 PM CST
Civil Twilight 6:53 AM CST 4:55 PM CST
Nautical Twilight 6:17 AM CST 5:32 PM CST
Astronomical Twilight 5:41 AM CST 6:08 PM CST
Moon No Moon Rise 10:50 AM CST (1/4)
Length of Visible Light 10h 01m
Length of Day
8h 55m
Waning Gibbous, 55% of the Moon is Illuminated
Jan 4
Waning Gibbous
Jan 4
Last Quarter
Jan 11
New
Jan 18
First Quarter
Jan 26
Full

Hourly Weather History & Observations

Time (CST) Temp. Windchill Dew Point Humidity Pressure Visibility Wind Dir Wind Speed Gust Speed Precip Events Conditions
12:15 AM 17.6 °F 1.7 °F 8.6 °F 68% 29.96 in 10.0 mi WSW 18.4 mph 24.2 mph N/A   Clear
12:35 AM 17.6 °F 0.9 °F 8.6 °F 68% 29.94 in 10.0 mi WSW 20.7 mph 28.8 mph N/A   Clear
12:55 AM 15.8 °F -1.5 °F 8.6 °F 73% 29.93 in 10.0 mi WSW 20.7 mph 27.6 mph N/A   Clear
1:35 AM 15.8 °F -2.7 °F 8.6 °F 73% 29.92 in 10.0 mi WSW 24.2 mph 31.1 mph N/A   Clear
1:55 AM 15.8 °F -1.9 °F 8.6 °F 73% 29.92 in 9.0 mi WSW 21.9 mph 32.2 mph N/A   Clear
2:15 AM 15.8 °F -2.3 °F 8.6 °F 73% 29.91 in 7.0 mi WSW 23.0 mph 32.2 mph N/A   Clear
2:35 AM 15.8 °F -1.5 °F 10.4 °F 79% 29.90 in 9.0 mi WSW 20.7 mph 31.1 mph N/A   Clear
2:55 AM 15.8 °F -0.2 °F 10.4 °F 79% 29.91 in 9.0 mi West 17.3 mph 32.2 mph N/A   Clear
3:15 AM 15.8 °F -1.1 °F 8.6 °F 73% 29.90 in 10.0 mi West 19.6 mph 31.1 mph N/A   Clear
3:35 AM 15.8 °F -1.5 °F 8.6 °F 73% 29.91 in 10.0 mi West 20.7 mph 28.8 mph N/A   Clear
3:55 AM 15.8 °F -0.6 °F 10.4 °F 79% 29.93 in 10.0 mi West 18.4 mph 25.3 mph N/A   Clear
4:15 AM 15.8 °F -1.1 °F 8.6 °F 73% 29.93 in 10.0 mi West 19.6 mph 27.6 mph N/A   Clear
4:35 AM 15.8 °F 0.3 °F 8.6 °F 73% 29.93 in 10.0 mi West 16.1 mph 23.0 mph N/A   Clear
4:55 AM 15.8 °F 0.3 °F 8.6 °F 73% 29.92 in 10.0 mi West 16.1 mph 24.2 mph N/A   Clear
5:15 AM 15.8 °F -1.1 °F 8.6 °F 73% 29.91 in 10.0 mi WSW 19.6 mph 28.8 mph N/A   Clear
5:35 AM 15.8 °F -0.6 °F 8.6 °F 73% 29.90 in 10.0 mi WSW 18.4 mph 25.3 mph N/A   Clear
5:55 AM 15.8 °F -0.6 °F 8.6 °F 73% 29.91 in 10.0 mi West 18.4 mph 24.2 mph N/A   Clear
6:15 AM 15.8 °F -0.2 °F 8.6 °F 73% 29.91 in 10.0 mi West 17.3 mph 24.2 mph N/A   Clear
6:35 AM 15.8 °F -0.6 °F 10.4 °F 79% 29.91 in 10.0 mi West 18.4 mph 23.0 mph N/A   Clear
6:55 AM 15.8 °F -0.6 °F 8.6 °F 73% 29.90 in 10.0 mi West 18.4 mph 24.2 mph N/A   Clear
7:15 AM 15.8 °F -1.1 °F 8.6 °F 73% 29.89 in 10.0 mi West 19.6 mph 26.5 mph N/A   Clear
7:35 AM 15.8 °F -1.9 °F 8.6 °F 73% 29.90 in 10.0 mi West 21.9 mph 26.5 mph N/A   Clear
7:55 AM 15.8 °F 0.9 °F 10.4 °F 79% 29.91 in 10.0 mi West 15.0 mph 23.0 mph N/A   Clear
8:15 AM 15.8 °F -0.6 °F 10.4 °F 79% 29.92 in 10.0 mi West 18.4 mph - N/A   Clear
8:35 AM 15.8 °F -0.2 °F 10.4 °F 79% 29.92 in 10.0 mi West 17.3 mph 23.0 mph N/A   Clear
8:55 AM 17.6 °F 2.2 °F 10.4 °F 73% 29.92 in 10.0 mi West 17.3 mph 24.2 mph N/A   Clear
9:15 AM 17.6 °F 2.2 °F 10.4 °F 73% 29.95 in 10.0 mi West 17.3 mph 24.2 mph N/A   Clear
9:35 AM 17.6 °F 3.2 °F 10.4 °F 73% 29.95 in 10.0 mi West 15.0 mph 21.9 mph N/A   Clear
9:55 AM 17.6 °F 1.7 °F 10.4 °F 73% 29.95 in 10.0 mi West 18.4 mph 25.3 mph N/A   Clear
10:15 AM 17.6 °F 2.7 °F 10.4 °F 73% 29.94 in 10.0 mi West 16.1 mph 21.9 mph N/A   Clear
10:35 AM 19.4 °F 5.0 °F 10.4 °F 68% 29.94 in 10.0 mi West 16.1 mph 26.5 mph N/A   Clear
10:55 AM 19.4 °F 4.5 °F 12.2 °F 74% 29.93 in 10.0 mi West 17.3 mph 23.0 mph N/A   Clear
11:15 AM 19.4 °F 5.0 °F 12.2 °F 74% 29.93 in 10.0 mi West 16.1 mph 24.2 mph N/A   Clear
11:35 AM 21.2 °F 6.0 °F 12.2 °F 68% 29.92 in 10.0 mi WSW 19.6 mph 23.0 mph N/A   Clear
11:55 AM 21.2 °F 6.4 °F 12.2 °F 68% 29.91 in 10.0 mi West 18.4 mph - N/A   Clear
12:15 PM 23.0 °F 10.1 °F 14.0 °F 68% 29.91 in 10.0 mi West 15.0 mph 23.0 mph N/A   Clear
12:35 PM 23.0 °F 9.6 °F 14.0 °F 68% 29.91 in 10.0 mi West 16.1 mph 23.0 mph N/A   Clear
12:55 PM 24.8 °F 11.1 °F 14.0 °F 64% 29.91 in 10.0 mi West 18.4 mph 21.9 mph N/A   Clear
1:15 PM 24.8 °F 11.9 °F 15.8 °F 69% 29.91 in 10.0 mi WSW 16.1 mph - N/A   Clear
1:35 PM 26.6 °F 14.7 °F 15.8 °F 64% 29.91 in 10.0 mi WSW 15.0 mph 20.7 mph N/A   Clear
1:55 PM 26.6 °F 13.8 °F 15.8 °F 64% 29.92 in 10.0 mi WSW 17.3 mph 23.0 mph N/A   Clear
2:15 PM 26.6 °F 13.4 °F 15.8 °F 64% 29.92 in 10.0 mi WSW 18.4 mph 21.9 mph N/A   Clear
2:35 PM 26.6 °F 14.3 °F 17.6 °F 69% 29.93 in 10.0 mi WSW 16.1 mph - N/A   Clear
2:55 PM 26.6 °F 14.3 °F 17.6 °F 69% 29.94 in 10.0 mi WSW 16.1 mph - N/A   Clear
3:15 PM 26.6 °F 13.8 °F 17.6 °F 69% 29.94 in 10.0 mi WSW 17.3 mph - N/A   Clear
3:35 PM 26.6 °F 14.3 °F 17.6 °F 69% 29.96 in 10.0 mi WSW 16.1 mph - N/A   Clear
3:55 PM 26.6 °F 14.7 °F 17.6 °F 69% 29.97 in 10.0 mi WSW 15.0 mph - N/A   Clear
4:15 PM 26.6 °F 14.7 °F 15.8 °F 64% 29.97 in 10.0 mi WSW 15.0 mph - N/A   Clear
4:35 PM 26.6 °F 15.2 °F 15.8 °F 64% 29.98 in 10.0 mi WSW 13.8 mph - N/A   Clear
4:55 PM 26.6 °F 14.7 °F 15.8 °F 64% 29.99 in 10.0 mi WSW 15.0 mph - N/A   Clear
5:15 PM 26.6 °F 14.7 °F 15.8 °F 64% 30.00 in 10.0 mi WSW 15.0 mph - N/A   Clear
5:35 PM 26.6 °F 15.2 °F 15.8 °F 64% 30.01 in 10.0 mi WSW 13.8 mph - N/A   Clear
5:55 PM 26.6 °F 15.2 °F 15.8 °F 64% 30.02 in 10.0 mi WSW 13.8 mph - N/A   Clear
6:15 PM 26.6 °F 14.7 °F 17.6 °F 69% 30.03 in 10.0 mi WSW 15.0 mph - N/A   Clear
6:35 PM 26.6 °F 15.7 °F 17.6 °F 69% 30.03 in 10.0 mi WSW 12.7 mph - N/A   Clear
6:55 PM 26.6 °F 15.7 °F 17.6 °F 69% 30.04 in 10.0 mi WSW 12.7 mph 17.3 mph N/A   Clear
7:15 PM 26.6 °F 15.2 °F 17.6 °F 69% 30.05 in 10.0 mi West 13.8 mph 18.4 mph N/A   Clear
7:35 PM 26.6 °F 15.7 °F 17.6 °F 69% 30.06 in 10.0 mi West 12.7 mph 18.4 mph N/A   Clear
7:55 PM 26.6 °F 15.7 °F 17.6 °F 69% 30.07 in 10.0 mi West 12.7 mph 17.3 mph N/A   Clear
8:15 PM 26.6 °F 16.8 °F 17.6 °F 69% 30.06 in 10.0 mi West 10.4 mph - N/A   Clear
8:35 PM 26.6 °F 15.7 °F 15.8 °F 64% 30.07 in 10.0 mi West 12.7 mph - N/A   Clear
8:55 PM 26.6 °F 18.2 °F 15.8 °F 64% 30.08 in 10.0 mi West 8.1 mph - N/A   Clear
9:35 PM 24.8 °F 15.3 °F 15.8 °F 69% 30.09 in 10.0 mi West 9.2 mph - N/A   Clear
9:55 PM 24.8 °F 16.9 °F 15.8 °F 69% 30.10 in 10.0 mi West 6.9 mph - N/A   Clear
10:15 PM 24.8 °F 16.1 °F 15.8 °F 69% 30.10 in 10.0 mi West 8.1 mph - N/A   Clear
10:35 PM 24.8 °F 15.3 °F 15.8 °F 69% 30.10 in 10.0 mi West 9.2 mph - N/A   Clear
10:55 PM 24.8 °F 15.3 °F 15.8 °F 69% 30.11 in 10.0 mi West 9.2 mph - N/A   Clear
11:15 PM 24.8 °F 15.3 °F 15.8 °F 69% 30.11 in 10.0 mi West 9.2 mph - N/A   Clear
11:35 PM 23.0 °F 13.1 °F 15.8 °F 74% 30.11 in 10.0 mi West 9.2 mph - N/A   Clear
11:55 PM 23.0 °F 13.1 °F 15.8 °F 74% 30.11 in 10.0 mi West 9.2 mph - N/A   Clear